createdAt,value
2022-11-19T00:01:50.877Z,94000.19
2022-11-19T00:04:17.807Z,93980.97
2022-11-19T00:06:44.841Z,93985.28
2022-11-19T00:09:14.427Z,93968.47
2022-11-19T00:12:00.185Z,93988.97
2022-11-19T00:14:27.236Z,93955.72
2022-11-19T00:16:54.124Z,93959.75
2022-11-19T00:19:21.178Z,93990.69
2022-11-19T00:21:50.252Z,93988.00
2022-11-19T00:24:17.164Z,93997.34
2022-11-19T00:26:44.597Z,94000.25
2022-11-19T00:29:17.932Z,93991.22
2022-11-19T00:31:45.246Z,94016.00
2022-11-19T00:34:12.438Z,93996.84
2022-11-19T00:36:39.459Z,94007.19
2022-11-19T00:39:06.608Z,93997.31
2022-11-19T00:41:33.487Z,94003.66
2022-11-19T00:44:00.331Z,93965.88
2022-11-19T00:46:31.364Z,93993.88
2022-11-19T00:48:59.894Z,93982.09
2022-11-19T00:51:29.462Z,93989.84
2022-11-19T00:53:57.070Z,93991.16
2022-11-19T00:56:26.511Z,94004.25
2022-11-19T00:58:54.445Z,94000.78
2022-11-19T01:01:24.702Z,93997.63
2022-11-19T01:03:53.713Z,93971.50
2022-11-19T01:06:23.262Z,94004.53
2022-11-19T01:08:51.818Z,93996.56
2022-11-19T01:11:22.617Z,94005.06
2022-11-19T01:13:49.795Z,94014.72
2022-11-19T01:16:19.684Z,93970.72
2022-11-19T01:18:49.061Z,94010.44
2022-11-19T01:21:17.622Z,94000.78
2022-11-19T01:23:45.359Z,94000.78
2022-11-19T01:26:13.583Z,94011.47
2022-11-19T01:28:41.076Z,94019.69
2022-11-19T01:31:25.134Z,94023.44
2022-11-19T01:33:53.492Z,94017.28
2022-11-19T01:36:24.025Z,94023.69
2022-11-19T01:38:51.900Z,94025.22
2022-11-19T01:41:24.616Z,94006.88
2022-11-19T01:43:54.393Z,93985.88
2022-11-19T01:46:24.054Z,94022.97
2022-11-19T01:48:57.341Z,94032.31
2022-11-19T01:51:31.387Z,94026.72
2022-11-19T01:54:02.055Z,94029.16
2022-11-19T01:56:30.314Z,94025.69
2022-11-19T01:59:07.582Z,94036.31
2022-11-19T02:01:34.870Z,94028.06
2022-11-19T02:04:03.286Z,94028.88
2022-11-19T02:06:31.630Z,94021.19
2022-11-19T02:08:59.244Z,94035.03
2022-11-19T02:11:27.558Z,94034.78
2022-11-19T02:14:03.207Z,94036.66
2022-11-19T02:16:38.068Z,94034.28
2022-11-19T02:19:16.983Z,94036.97
2022-11-19T02:22:02.531Z,94044.44
2022-11-19T02:24:48.809Z,94047.41
2022-11-19T02:27:37.512Z,94064.47
2022-11-19T02:30:10.114Z,94072.22
2022-11-19T02:32:45.787Z,94061.84
2022-11-19T02:35:24.314Z,94077.31
2022-11-19T02:38:08.453Z,94070.13
2022-11-19T02:40:44.070Z,94084.53
2022-11-19T02:43:27.281Z,94084.22
2022-11-19T02:46:00.142Z,94087.69
2022-11-19T02:48:35.874Z,94075.72
2022-11-19T02:51:05.193Z,94096.53
2022-11-19T02:53:33.396Z,94094.91
2022-11-19T02:56:34.482Z,94082.31
2022-11-19T02:59:21.356Z,94105.56
2022-11-19T03:02:07.988Z,94125.03
2022-11-19T03:04:35.447Z,94109.53
2022-11-19T03:07:17.199Z,94094.28
2022-11-19T03:10:07.156Z,94126.28
2022-11-19T03:12:54.611Z,94137.22
2022-11-19T03:16:05.928Z,94135.06
2022-11-19T03:18:44.867Z,94108.09
2022-11-19T03:21:24.485Z,94134.22
2022-11-19T03:23:58.195Z,94139.28
2022-11-19T03:26:30.738Z,94150.72
2022-11-19T03:29:04.410Z,94141.63
2022-11-19T03:31:34.789Z,94146.44
2022-11-19T03:34:10.421Z,94121.88
2022-11-19T03:36:40.992Z,94155.00
2022-11-19T03:39:12.988Z,94123.97
2022-11-19T03:41:42.046Z,94146.41
2022-11-19T03:44:14.633Z,94152.28
2022-11-19T03:46:43.973Z,94141.84
2022-11-19T03:49:22.885Z,94157.03
2022-11-19T03:52:02.669Z,94136.19
2022-11-19T03:54:29.779Z,94151.41
2022-11-19T03:56:58.932Z,94153.78
2022-11-19T03:59:29.885Z,94151.34
2022-11-19T04:02:01.500Z,94161.13
2022-11-19T04:04:38.338Z,94175.84
2022-11-19T04:07:18.573Z,94184.88
2022-11-19T04:09:45.653Z,94140.97
2022-11-19T04:12:19.305Z,94173.09
2022-11-19T04:14:46.619Z,94185.84
2022-11-19T04:17:14.005Z,94202.63
2022-11-19T04:19:41.380Z,94194.88
2022-11-19T04:22:08.494Z,94186.31
2022-11-19T04:24:35.568Z,94195.94
2022-11-19T04:27:02.483Z,94204.53
2022-11-19T04:29:29.467Z,94199.97
2022-11-19T04:31:56.372Z,94194.09
2022-11-19T04:34:23.525Z,94197.31
2022-11-19T04:36:50.500Z,94159.00
2022-11-19T04:39:17.559Z,94214.38
2022-11-19T04:41:44.649Z,94222.63
2022-11-19T04:44:11.540Z,94238.59
2022-11-19T04:46:38.684Z,94174.66
2022-11-19T04:49:05.733Z,94241.28
2022-11-19T04:51:32.757Z,94225.81
2022-11-19T04:53:59.625Z,94233.00
2022-11-19T04:56:26.541Z,94240.44
2022-11-19T04:58:53.361Z,94243.09
2022-11-19T05:01:21.809Z,94242.56
2022-11-19T05:03:48.997Z,94252.69
2022-11-19T05:06:16.074Z,94267.63
2022-11-19T05:08:43.484Z,94259.78
2022-11-19T05:11:10.784Z,94278.47
2022-11-19T05:13:37.886Z,94283.97
2022-11-19T05:16:05.068Z,94300.25
2022-11-19T05:18:32.367Z,94307.69
2022-11-19T05:20:59.595Z,94305.50
2022-11-19T05:23:26.937Z,94318.31
2022-11-19T05:25:53.902Z,94330.03
2022-11-19T05:31:05.950Z,94344.56
2022-11-19T05:33:34.497Z,94331.22
2022-11-19T05:36:02.293Z,94337.91
2022-11-19T05:38:29.300Z,94348.59
2022-11-19T05:40:56.576Z,94341.38
2022-11-19T05:43:23.706Z,94353.88
2022-11-19T05:45:50.763Z,94365.03
2022-11-19T05:48:17.668Z,94348.19
2022-11-19T05:50:44.524Z,94354.53
2022-11-19T05:53:11.795Z,94378.13
2022-11-19T05:55:38.911Z,94374.72
2022-11-19T05:58:06.024Z,94382.38
2022-11-19T06:00:32.874Z,94366.22
2022-11-19T06:03:01.171Z,94381.25
2022-11-19T06:05:28.683Z,94382.34
2022-11-19T06:07:55.627Z,94380.91
2022-11-19T06:10:22.707Z,94385.25
2022-11-19T06:12:50.407Z,94357.84
2022-11-19T06:15:17.425Z,94398.00
2022-11-19T06:17:44.493Z,94404.13
2022-11-19T06:20:11.831Z,94416.31
2022-11-19T06:22:39.961Z,94419.91
2022-11-19T06:25:07.933Z,94424.72
2022-11-19T06:27:35.589Z,94434.16
2022-11-19T06:30:02.901Z,94448.84
2022-11-19T06:32:30.724Z,94448.06
2022-11-19T06:35:14.486Z,94451.03
2022-11-19T06:37:50.490Z,94453.19
2022-11-19T06:40:23.551Z,94448.16
2022-11-19T06:42:52.477Z,94445.75
2022-11-19T06:45:21.587Z,94455.59
2022-11-19T06:47:49.458Z,94472.69
2022-11-19T06:50:16.712Z,94478.88
2022-11-19T06:52:43.776Z,94484.19
2022-11-19T06:55:10.873Z,94485.56
2022-11-19T06:57:39.020Z,94482.91
2022-11-19T07:00:06.895Z,94490.09
2022-11-19T07:02:33.973Z,94477.56
2022-11-19T07:05:01.258Z,94485.25
2022-11-19T07:07:28.389Z,94488.25
2022-11-19T07:09:55.429Z,94485.25
2022-11-19T07:12:22.341Z,94498.91
2022-11-19T07:14:49.416Z,94484.00
2022-11-19T07:17:16.352Z,94477.00
2022-11-19T07:19:43.651Z,94480.75
2022-11-19T07:22:10.912Z,94489.47
2022-11-19T07:24:38.170Z,94484.41
2022-11-19T07:27:05.099Z,94484.25
2022-11-19T07:29:32.329Z,94472.25
2022-11-19T07:31:59.475Z,94470.66
2022-11-19T07:34:26.318Z,94481.47
2022-11-19T07:36:53.447Z,94472.47
2022-11-19T07:39:20.834Z,94462.13
2022-11-19T07:42:07.039Z,94475.84
2022-11-19T07:44:34.946Z,94477.16
2022-11-19T07:47:01.898Z,94491.16
2022-11-19T07:49:28.998Z,94497.63
2022-11-19T07:51:56.025Z,94494.78
2022-11-19T07:54:23.193Z,94479.34
2022-11-19T07:56:50.456Z,94489.56
2022-11-19T07:59:18.131Z,94488.03
2022-11-19T08:01:45.362Z,94491.84
2022-11-19T08:04:12.367Z,94502.06
2022-11-19T08:06:39.382Z,94513.09
2022-11-19T08:09:06.505Z,94519.03
2022-11-19T08:11:33.623Z,94513.72
2022-11-19T08:14:03.922Z,94499.84
2022-11-19T08:16:51.911Z,94506.53
2022-11-19T08:19:19.404Z,94514.66
2022-11-19T08:21:47.301Z,94518.66
2022-11-19T08:24:16.307Z,94514.09
2022-11-19T08:26:44.326Z,94536.59
2022-11-19T08:29:16.588Z,94537.41
2022-11-19T08:31:47.279Z,94521.88
2022-11-19T08:34:15.483Z,94527.53
2022-11-19T08:36:42.589Z,94528.59
2022-11-19T08:39:10.094Z,94531.00
2022-11-19T08:41:56.136Z,94541.75
2022-11-19T08:44:23.339Z,94527.81
2022-11-19T08:46:50.743Z,94532.91
2022-11-19T08:49:17.951Z,94528.91
2022-11-19T08:51:45.839Z,94524.63
2022-11-19T08:54:13.388Z,94515.50
2022-11-19T08:56:40.637Z,94512.56
2022-11-19T08:59:07.576Z,94532.91
2022-11-19T09:01:34.429Z,94541.44
2022-11-19T09:04:01.913Z,94529.38
2022-11-19T09:06:28.872Z,94547.31
2022-11-19T09:08:56.087Z,94555.66
2022-11-19T09:11:23.230Z,94545.44
2022-11-19T09:13:50.499Z,94540.09
2022-11-19T09:16:17.681Z,94539.50
2022-11-19T09:18:44.983Z,94537.94
2022-11-19T09:21:12.864Z,94533.91
2022-11-19T09:23:42.709Z,94555.56
2022-11-19T09:26:13.791Z,94529.28
2022-11-19T09:28:41.757Z,94523.69
2022-11-19T09:31:15.088Z,94528.22
2022-11-19T09:33:44.364Z,94521.53
2022-11-19T09:36:12.524Z,94522.03
2022-11-19T09:38:40.905Z,94517.69
2022-11-19T09:41:45.411Z,94510.97
2022-11-19T09:44:29.956Z,94496.44
2022-11-19T09:47:21.571Z,94502.78
2022-11-19T09:50:22.292Z,94486.69
2022-11-19T09:52:59.293Z,94478.94
2022-11-19T09:55:36.788Z,94478.50
2022-11-19T09:58:07.490Z,94457.84
2022-11-19T10:00:34.609Z,94447.44
2022-11-19T10:03:11.493Z,94472.97
2022-11-19T10:05:41.482Z,94472.25
2022-11-19T10:08:16.537Z,94473.72
2022-11-19T10:11:02.563Z,94468.22
2022-11-19T10:14:18.254Z,94458.25
2022-11-19T10:17:07.884Z,94453.91
2022-11-19T10:19:47.373Z,94454.28
2022-11-19T10:22:17.280Z,94458.13
2022-11-19T10:25:07.585Z,94465.72
2022-11-19T10:28:02.128Z,94471.09
2022-11-19T10:30:31.147Z,94454.13
2022-11-19T10:33:15.002Z,94439.47
2022-11-19T10:35:46.193Z,94440.72
2022-11-19T10:38:26.859Z,94456.50
2022-11-19T10:41:00.222Z,94447.25
2022-11-19T10:43:37.081Z,94453.28
2022-11-19T10:46:09.218Z,94448.84
2022-11-19T10:48:43.341Z,94448.44
2022-11-19T10:51:19.331Z,94446.41
2022-11-19T10:53:46.434Z,94432.66
2022-11-19T10:56:18.108Z,94434.91
2022-11-19T10:58:49.203Z,94403.19
2022-11-19T11:01:31.533Z,94427.34
2022-11-19T11:04:13.385Z,94430.47
2022-11-19T11:06:52.572Z,94438.47
2022-11-19T11:09:51.969Z,94433.81
2022-11-19T11:12:37.527Z,94425.97
2022-11-19T11:15:21.768Z,94427.28
2022-11-19T11:18:03.737Z,94412.78
2022-11-19T11:20:31.626Z,94410.69
2022-11-19T11:23:12.185Z,94401.66
2022-11-19T11:25:39.629Z,94424.19
2022-11-19T11:28:16.420Z,94414.22
2022-11-19T11:31:00.173Z,94423.44
2022-11-19T11:33:43.409Z,94416.22
2022-11-19T11:36:20.563Z,94412.63
2022-11-19T11:38:50.703Z,94399.91
2022-11-19T11:42:04.359Z,94363.69
2022-11-19T11:44:20.834Z,94351.00
2022-11-19T11:47:23.288Z,94401.97
2022-11-19T11:49:57.644Z,94404.72
2022-11-19T11:52:53.453Z,94399.81
2022-11-19T11:55:23.400Z,94402.75
2022-11-19T11:57:57.779Z,94399.66
2022-11-19T12:00:56.037Z,94408.06
2022-11-19T12:03:23.834Z,94394.69
2022-11-19T12:05:50.832Z,94402.56
2022-11-19T12:09:00.416Z,94401.50
2022-11-19T12:11:54.178Z,94388.44
2022-11-19T12:14:46.251Z,94394.22
2022-11-19T12:17:46.574Z,94395.63
2022-11-19T12:20:45.047Z,94394.31
2022-11-19T12:23:33.697Z,94392.63
2022-11-19T12:26:19.550Z,94388.97
2022-11-19T12:29:11.586Z,94397.84
2022-11-19T12:31:59.961Z,94399.88
2022-11-19T12:34:59.176Z,94411.16
2022-11-19T12:37:35.323Z,94407.25
2022-11-19T12:40:30.057Z,94405.25
2022-11-19T12:43:13.484Z,94401.97
2022-11-19T12:46:03.189Z,94385.69
2022-11-19T12:48:36.661Z,94391.78
2022-11-19T12:51:04.608Z,94391.31
2022-11-19T12:53:59.075Z,94391.00
2022-11-19T12:56:42.424Z,94400.38
2022-11-19T12:59:34.386Z,94391.31
2022-11-19T13:02:08.041Z,94382.72
2022-11-19T13:04:48.481Z,94401.47
2022-11-19T13:07:23.230Z,94403.34
2022-11-19T13:10:00.586Z,94388.97
2022-11-19T13:12:35.482Z,94396.06
2022-11-19T13:15:08.719Z,94384.22
2022-11-19T13:17:40.724Z,94399.41
2022-11-19T13:20:38.061Z,94406.84
2022-11-19T13:23:07.222Z,94416.72
2022-11-19T13:25:42.687Z,94416.56
2022-11-19T13:28:46.349Z,94414.84
2022-11-19T13:31:41.762Z,94399.84
2022-11-19T13:34:47.921Z,94416.41
2022-11-19T13:37:21.696Z,94397.41
2022-11-19T13:40:02.080Z,94409.03
2022-11-19T13:43:25.043Z,94399.84
2022-11-19T13:46:00.292Z,94398.19
2022-11-19T13:48:34.262Z,94398.59
2022-11-19T13:51:04.352Z,94394.41
2022-11-19T13:53:38.028Z,94400.00
2022-11-19T13:56:12.290Z,94403.09
2022-11-19T13:58:55.040Z,94396.56
2022-11-19T14:01:47.627Z,94402.97
2022-11-19T14:04:27.250Z,94406.53
2022-11-19T14:07:13.241Z,94407.06
2022-11-19T14:09:51.848Z,94418.78
2022-11-19T14:12:53.210Z,94424.00
2022-11-19T14:15:48.081Z,94418.28
2022-11-19T14:18:54.690Z,94420.47
2022-11-19T14:21:43.479Z,94411.50
2022-11-19T14:24:44.797Z,94410.72
2022-11-19T14:27:27.739Z,94405.53
2022-11-19T14:29:59.235Z,94405.00
2022-11-19T14:32:46.336Z,94387.72
2022-11-19T14:35:27.230Z,94392.69
2022-11-19T14:37:58.022Z,94399.81
2022-11-19T14:40:33.993Z,94386.69
2022-11-19T14:43:19.762Z,94402.97
2022-11-19T14:46:05.261Z,94404.91
2022-11-19T14:48:47.452Z,94369.53
2022-11-19T14:51:34.668Z,94409.06
2022-11-19T14:54:14.041Z,94402.44
2022-11-19T14:56:42.900Z,94404.06
2022-11-19T14:59:16.215Z,94419.56
2022-11-19T15:01:55.668Z,94414.03
2022-11-19T15:04:24.014Z,94413.81
2022-11-19T15:06:52.558Z,94398.06
2022-11-19T15:09:50.692Z,94411.00
2022-11-19T15:12:19.870Z,94381.22
2022-11-19T15:15:17.233Z,94390.66
2022-11-19T15:17:45.340Z,94407.06
2022-11-19T15:20:22.507Z,94397.47
2022-11-19T15:23:05.994Z,94407.06
2022-11-19T15:25:44.704Z,94407.09
2022-11-19T15:28:30.617Z,94412.28
2022-11-19T15:31:04.857Z,94398.69
2022-11-19T15:34:26.090Z,94419.47
2022-11-19T15:37:00.994Z,94412.94
2022-11-19T15:39:43.312Z,94414.75
2022-11-19T15:42:34.614Z,94411.53
2022-11-19T15:45:08.235Z,94415.47
2022-11-19T15:47:47.128Z,94402.53
2022-11-19T15:50:20.852Z,94340.56
2022-11-19T15:52:59.638Z,94394.00
2022-11-19T15:55:32.056Z,94399.38
2022-11-19T15:58:12.669Z,94391.59
2022-11-19T16:00:48.336Z,94388.84
2022-11-19T16:03:16.503Z,94381.09
2022-11-19T16:05:50.249Z,94405.09
2022-11-19T16:08:18.020Z,94380.91
2022-11-19T16:10:47.989Z,94379.47
2022-11-19T16:13:42.385Z,94398.22
2022-11-19T16:16:42.793Z,94410.41
2022-11-19T16:19:14.271Z,94399.97
2022-11-19T16:21:43.449Z,94400.25
2022-11-19T16:24:32.489Z,94401.06
2022-11-19T16:27:01.460Z,94401.16
2022-11-19T16:29:28.708Z,94414.22
2022-11-19T16:32:01.998Z,94379.47
2022-11-19T16:34:31.688Z,94414.16
2022-11-19T16:36:59.743Z,94419.41
2022-11-19T16:39:29.692Z,94429.81
2022-11-19T16:42:19.810Z,94436.91
2022-11-19T16:44:50.094Z,94447.03
2022-11-19T16:47:26.281Z,94427.81
2022-11-19T16:50:32.458Z,94445.44
2022-11-19T16:53:01.147Z,94410.91
2022-11-19T16:55:28.981Z,94455.25
2022-11-19T16:57:59.253Z,94449.38
2022-11-19T17:00:38.376Z,94429.28
2022-11-19T17:03:20.938Z,94442.38
2022-11-19T17:05:51.973Z,94434.03
2022-11-19T17:08:29.199Z,94424.34
2022-11-19T17:11:35.226Z,94467.34
2022-11-19T17:14:17.708Z,94453.78
2022-11-19T17:16:49.272Z,94464.22
2022-11-19T17:19:27.152Z,94454.72
2022-11-19T17:22:01.856Z,94439.88
2022-11-19T17:24:40.555Z,94452.47
2022-11-19T17:27:11.619Z,94441.78
2022-11-19T17:29:38.717Z,94430.63
2022-11-19T17:32:05.999Z,94419.59
2022-11-19T17:34:45.043Z,94452.00
2022-11-19T17:37:12.416Z,94441.56
2022-11-19T17:39:39.400Z,94438.56
2022-11-19T17:42:25.080Z,94450.91
2022-11-19T17:44:53.639Z,94463.81
2022-11-19T17:47:23.606Z,94446.25
2022-11-19T17:49:54.459Z,94458.16
2022-11-19T17:52:27.656Z,94477.31
2022-11-19T17:55:02.742Z,94483.22
2022-11-19T17:57:31.316Z,94470.19
2022-11-19T17:59:58.178Z,94459.31
2022-11-19T18:02:25.310Z,94461.66
2022-11-19T18:04:52.353Z,94474.25
2022-11-19T18:07:19.531Z,94499.94
2022-11-19T18:09:46.676Z,94460.44
2022-11-19T18:12:17.104Z,94453.44
2022-11-19T18:14:46.376Z,94482.06
2022-11-19T18:17:15.085Z,94479.47
2022-11-19T18:19:42.319Z,94454.84
2022-11-19T18:22:18.781Z,94470.69
2022-11-19T18:24:50.342Z,94459.50
2022-11-19T18:27:17.234Z,94456.03
2022-11-19T18:29:44.699Z,94454.75
2022-11-19T18:32:15.251Z,94462.53
2022-11-19T18:34:43.457Z,94465.47
2022-11-19T18:37:11.111Z,94435.84
2022-11-19T18:39:38.252Z,94459.38
2022-11-19T18:42:05.741Z,94416.84
2022-11-19T18:44:35.534Z,94459.97
2022-11-19T18:47:07.708Z,94466.41
2022-11-19T18:49:35.318Z,94461.84
2022-11-19T18:52:04.297Z,94447.41
2022-11-19T18:54:31.349Z,94461.31
2022-11-19T18:56:58.686Z,94455.69
2022-11-19T18:59:25.616Z,94464.00
2022-11-19T19:01:55.679Z,94457.56
2022-11-19T19:04:24.228Z,94426.56
2022-11-19T19:06:51.599Z,94439.31
2022-11-19T19:09:22.013Z,94395.50
2022-11-19T19:12:13.587Z,94430.50
2022-11-19T19:14:42.219Z,94444.16
2022-11-19T19:17:09.963Z,94438.78
2022-11-19T19:19:37.319Z,94436.34
2022-11-19T19:22:04.888Z,94425.22
2022-11-19T19:24:32.649Z,94435.59
2022-11-19T19:27:00.982Z,94425.94
2022-11-19T19:29:28.208Z,94429.97
2022-11-19T19:31:55.390Z,94431.78
2022-11-19T19:34:22.701Z,94455.03
2022-11-19T19:36:53.257Z,94426.72
2022-11-19T19:39:21.235Z,94418.97
2022-11-19T19:41:49.472Z,94428.63
2022-11-19T19:44:16.915Z,94407.94
2022-11-19T19:46:43.887Z,94444.09
2022-11-19T19:49:10.919Z,94420.84
2022-11-19T19:51:38.075Z,94403.22
2022-11-19T19:54:05.024Z,94382.91
2022-11-19T19:56:32.884Z,94409.38
2022-11-19T19:59:00.998Z,94390.41
2022-11-19T20:01:33.153Z,94405.84
2022-11-19T20:04:06.021Z,94403.97
2022-11-19T20:06:34.557Z,94391.72
2022-11-19T20:09:07.021Z,94396.50
2022-11-19T20:11:36.155Z,94415.75
2022-11-19T20:14:03.651Z,94411.47
2022-11-19T20:16:31.956Z,94405.63
2022-11-19T20:19:00.396Z,94390.06
2022-11-19T20:21:31.737Z,94372.41
2022-11-19T20:23:59.108Z,94389.00
2022-11-19T20:26:29.398Z,94393.03
2022-11-19T20:29:04.631Z,94384.94
2022-11-19T20:31:33.493Z,94389.53
2022-11-19T20:34:04.279Z,94187.63
2022-11-19T20:36:34.010Z,94253.56
2022-11-19T20:39:01.576Z,94383.09
2022-11-19T20:41:47.959Z,94382.00
2022-11-19T20:44:25.686Z,94366.47
2022-11-19T20:46:54.195Z,94388.97
2022-11-19T20:49:24.730Z,94360.94
2022-11-19T20:51:52.717Z,94363.31
2022-11-19T20:54:21.489Z,94364.44
2022-11-19T20:56:50.022Z,94363.06
2022-11-19T20:59:17.441Z,94349.97
2022-11-19T21:01:44.876Z,94384.78
2022-11-19T21:04:12.119Z,94373.06
2022-11-19T21:06:39.863Z,94378.09
2022-11-19T21:09:07.078Z,94361.28
2022-11-19T21:11:34.734Z,94352.53
2022-11-19T21:14:02.397Z,94344.72
2022-11-19T21:16:29.961Z,94363.97
2022-11-19T21:18:56.912Z,94342.31
2022-11-19T21:21:24.698Z,94351.69
2022-11-19T21:23:53.449Z,94364.47
2022-11-19T21:26:26.090Z,94336.13
2022-11-19T21:28:55.782Z,94354.09
2022-11-19T21:31:48.761Z,94318.06
2022-11-19T21:34:17.905Z,94350.34
2022-11-19T21:36:46.710Z,94331.34
2022-11-19T21:39:15.030Z,94346.06
2022-11-19T21:41:42.226Z,94338.56
2022-11-19T21:44:09.990Z,94330.84
2022-11-19T21:46:37.083Z,94339.09
2022-11-19T21:49:04.912Z,94330.50
2022-11-19T21:51:31.829Z,94329.47
2022-11-19T21:53:59.332Z,94314.41
2022-11-19T21:56:28.024Z,94346.75
2022-11-19T21:58:55.179Z,94343.56
2022-11-19T22:01:22.263Z,94312.34
2022-11-19T22:03:49.588Z,94342.75
2022-11-19T22:06:16.828Z,94334.19
2022-11-19T22:08:43.945Z,94294.09
2022-11-19T22:11:31.241Z,94326.94
2022-11-19T22:14:01.573Z,94323.44
2022-11-19T22:16:29.191Z,94291.53
2022-11-19T22:18:56.070Z,94307.31
2022-11-19T22:21:23.326Z,94331.13
2022-11-19T22:23:50.269Z,94329.22
2022-11-19T22:26:17.734Z,94310.47
2022-11-19T22:28:44.663Z,94313.56
2022-11-19T22:31:11.782Z,94304.97
2022-11-19T22:33:40.810Z,94284.16
2022-11-19T22:36:10.566Z,94284.56
2022-11-19T22:38:39.034Z,94271.94
2022-11-19T22:41:10.229Z,94277.75
2022-11-19T22:43:38.760Z,94275.75
2022-11-19T22:46:06.975Z,94263.72
2022-11-19T22:48:33.964Z,94311.78
2022-11-19T22:51:08.904Z,94274.56
2022-11-19T22:53:36.915Z,94302.94
2022-11-19T22:56:06.635Z,94284.50
2022-11-19T22:58:34.467Z,94301.56
2022-11-19T23:01:01.616Z,94308.09
2022-11-19T23:03:28.964Z,94294.44
2022-11-19T23:05:56.321Z,94302.88
2022-11-19T23:08:23.156Z,94297.50
2022-11-19T23:11:04.282Z,94302.03
2022-11-19T23:13:34.205Z,94293.16
2022-11-19T23:16:03.142Z,94308.19
2022-11-19T23:18:33.576Z,94295.84
2022-11-19T23:21:06.130Z,94297.28
2022-11-19T23:23:34.613Z,94309.22
2022-11-19T23:26:02.796Z,94307.69
2022-11-19T23:28:31.497Z,94284.00
2022-11-19T23:31:03.716Z,94315.38
2022-11-19T23:33:31.030Z,94324.09
2022-11-19T23:36:18.972Z,94285.25
2022-11-19T23:38:45.992Z,94298.13
2022-11-19T23:41:15.504Z,94327.59
2022-11-19T23:43:42.886Z,94323.56
2022-11-19T23:46:16.103Z,94308.47
2022-11-19T23:48:44.883Z,94249.72
2022-11-19T23:51:14.187Z,94291.28
2022-11-19T23:53:42.311Z,94287.31
2022-11-19T23:56:10.203Z,94279.44
2022-11-19T23:58:37.580Z,94285.00
